createdAt,value
2023-05-05T00:00:55.035Z,10.62
2023-05-05T00:01:57.274Z,10.63
2023-05-05T00:02:59.569Z,10.65
2023-05-05T00:04:01.984Z,10.65
2023-05-05T00:05:04.505Z,10.59
2023-05-05T00:06:08.096Z,10.57
2023-05-05T00:07:10.270Z,10.51
2023-05-05T00:08:12.433Z,10.48
2023-05-05T00:09:14.659Z,10.52
2023-05-05T00:10:16.798Z,10.55
2023-05-05T00:11:19.078Z,10.51
2023-05-05T00:12:21.211Z,10.55
2023-05-05T00:13:24.165Z,10.53
2023-05-05T00:14:26.341Z,10.45
2023-05-05T00:15:28.554Z,10.45
2023-05-05T00:16:30.698Z,10.39
2023-05-05T00:17:33.027Z,10.41
2023-05-05T00:18:35.371Z,10.41
2023-05-05T00:19:37.618Z,10.39
2023-05-05T00:20:39.808Z,10.38
2023-05-05T00:21:41.961Z,10.48
2023-05-05T00:22:44.165Z,10.46
2023-05-05T00:23:46.346Z,10.44
2023-05-05T00:24:48.493Z,10.37
2023-05-05T00:25:51.064Z,10.37
2023-05-05T00:26:53.254Z,10.35
2023-05-05T00:27:56.210Z,10.33
2023-05-05T00:28:58.356Z,10.26
2023-05-05T00:30:00.594Z,10.30
2023-05-05T00:31:02.852Z,10.29
2023-05-05T00:32:05.097Z,10.29
2023-05-05T00:33:07.647Z,10.30
2023-05-05T00:34:09.846Z,10.26
2023-05-05T00:35:11.975Z,10.28
2023-05-05T00:36:14.795Z,10.28
2023-05-05T00:37:17.342Z,10.23
2023-05-05T00:38:19.766Z,10.27
2023-05-05T00:39:21.916Z,10.22
2023-05-05T00:40:25.119Z,10.21
2023-05-05T00:41:27.283Z,10.27
2023-05-05T00:42:39.696Z,10.34
2023-05-05T00:43:41.904Z,10.19
2023-05-05T00:44:44.942Z,10.24
2023-05-05T00:45:48.022Z,10.18
2023-05-05T00:46:50.405Z,10.18
2023-05-05T00:47:56.675Z,10.29
2023-05-05T00:48:59.793Z,10.22
2023-05-05T00:50:09.763Z,10.36
2023-05-05T00:51:12.897Z,10.14
2023-05-05T00:52:15.103Z,10.18
2023-05-05T00:53:17.292Z,10.12
2023-05-05T00:54:19.487Z,10.10
2023-05-05T00:55:22.061Z,10.06
2023-05-05T00:56:27.353Z,10.05
2023-05-05T00:57:29.851Z,10.09
2023-05-05T00:58:32.085Z,10.08
2023-05-05T00:59:35.076Z,10.06
2023-05-05T01:00:37.255Z,10.09
2023-05-05T01:01:39.717Z,10.05
2023-05-05T01:02:42.515Z,10.07
2023-05-05T01:03:45.080Z,10.05
2023-05-05T01:04:47.418Z,10.07
2023-05-05T01:06:10.128Z,10.29
2023-05-05T01:07:36.207Z,10.26
2023-05-05T01:09:17.157Z,10.30
2023-05-05T01:10:51.663Z,10.32
2023-05-05T01:12:25.114Z,10.25
2023-05-05T01:13:36.622Z,10.18
2023-05-05T01:14:42.031Z,10.07
2023-05-05T01:16:01.016Z,10.17
2023-05-05T01:17:28.869Z,10.15
2023-05-05T01:18:54.274Z,10.12
2023-05-05T01:20:19.361Z,10.18
2023-05-05T01:21:28.543Z,10.19
2023-05-05T01:22:41.522Z,10.19
2023-05-05T01:24:14.170Z,10.23
2023-05-05T01:25:53.655Z,10.23
2023-05-05T01:27:44.901Z,10.20
2023-05-05T01:29:06.920Z,10.09
2023-05-05T01:30:36.672Z,10.07
2023-05-05T01:31:51.637Z,10.00
2023-05-05T01:33:00.766Z,10.01
2023-05-05T01:34:06.528Z,10.00
2023-05-05T01:35:37.726Z,10.01
2023-05-05T01:36:44.392Z,9.96
2023-05-05T01:37:59.122Z,10.07
2023-05-05T01:39:03.223Z,9.92
2023-05-05T01:40:10.574Z,9.94
2023-05-05T01:41:19.913Z,10.05
2023-05-05T01:42:25.030Z,9.89
2023-05-05T01:43:31.586Z,9.94
2023-05-05T01:44:37.641Z,10.03
2023-05-05T01:45:43.664Z,10.03
2023-05-05T01:46:48.881Z,9.94
2023-05-05T01:47:54.554Z,9.91
2023-05-05T01:48:58.718Z,9.91
2023-05-05T01:50:03.886Z,10.02
2023-05-05T01:51:07.967Z,9.89
2023-05-05T01:52:11.042Z,9.85
2023-05-05T01:53:16.325Z,9.89
2023-05-05T01:54:20.050Z,9.83
2023-05-05T01:55:25.442Z,9.94
2023-05-05T01:56:31.542Z,9.94
2023-05-05T01:57:34.864Z,9.83
2023-05-05T01:58:38.089Z,9.85
2023-05-05T01:59:40.890Z,9.79
2023-05-05T02:00:44.559Z,9.81
2023-05-05T02:01:49.303Z,9.83
2023-05-05T02:02:53.007Z,9.80
2023-05-05T02:03:57.416Z,9.83
2023-05-05T02:05:01.146Z,9.85
2023-05-05T02:06:05.462Z,9.78
2023-05-05T02:07:08.823Z,9.75
2023-05-05T02:08:12.200Z,9.75
2023-05-05T02:09:15.626Z,9.80
2023-05-05T02:10:18.409Z,9.72
2023-05-05T02:11:21.767Z,9.70
2023-05-05T02:12:23.987Z,9.68
2023-05-05T02:13:27.937Z,9.71
2023-05-05T02:14:31.036Z,9.71
2023-05-05T02:15:35.757Z,9.73
2023-05-05T02:16:41.183Z,9.68
2023-05-05T02:17:45.110Z,9.63
2023-05-05T02:18:48.468Z,9.66
2023-05-05T02:19:53.050Z,9.75
2023-05-05T02:20:55.260Z,9.63
2023-05-05T02:21:57.793Z,9.70
2023-05-05T02:23:00.343Z,9.68
2023-05-05T02:24:02.792Z,9.62
2023-05-05T02:25:05.712Z,9.62
2023-05-05T02:26:10.074Z,9.69
2023-05-05T02:27:16.112Z,9.59
2023-05-05T02:28:43.616Z,9.73
2023-05-05T02:29:51.977Z,9.71
2023-05-05T02:30:59.655Z,9.70
2023-05-05T02:32:06.908Z,9.63
2023-05-05T02:33:12.469Z,9.58
2023-05-05T02:34:21.665Z,9.63
2023-05-05T02:35:30.886Z,9.60
2023-05-05T02:36:37.328Z,9.51
2023-05-05T02:37:41.442Z,9.49
2023-05-05T02:38:46.294Z,9.44
2023-05-05T02:40:00.307Z,9.52
2023-05-05T02:41:07.752Z,9.39
2023-05-05T02:42:15.581Z,9.39
2023-05-05T02:43:20.934Z,9.37
2023-05-05T02:44:26.080Z,9.38
2023-05-05T02:45:29.127Z,9.25
2023-05-05T02:46:31.593Z,9.28
2023-05-05T02:47:38.028Z,9.37
2023-05-05T02:48:41.114Z,9.23
2023-05-05T02:49:43.268Z,9.24
2023-05-05T02:50:45.519Z,9.25
2023-05-05T02:51:53.998Z,9.23
2023-05-05T02:53:01.211Z,9.18
2023-05-05T02:54:04.725Z,9.30
2023-05-05T02:55:08.065Z,9.27
2023-05-05T02:56:41.085Z,9.41
2023-05-05T02:58:24.403Z,9.34
2023-05-05T02:59:48.713Z,9.33
2023-05-05T03:01:09.743Z,9.32
2023-05-05T03:02:32.987Z,9.39
2023-05-05T03:03:44.846Z,9.29
2023-05-05T03:05:13.425Z,9.29
2023-05-05T03:06:27.224Z,9.24
2023-05-05T03:07:40.658Z,9.23
2023-05-05T03:09:03.221Z,9.20
2023-05-05T03:10:11.854Z,9.17
2023-05-05T03:11:54.780Z,9.19
2023-05-05T03:13:00.933Z,9.13
2023-05-05T03:14:18.385Z,9.06
2023-05-05T03:15:35.985Z,9.16
2023-05-05T03:16:40.795Z,9.00
2023-05-05T03:17:46.354Z,9.07
2023-05-05T03:18:51.126Z,9.02
2023-05-05T03:19:53.934Z,8.94
2023-05-05T03:20:56.485Z,8.95
2023-05-05T03:21:59.246Z,8.96
2023-05-05T03:23:02.179Z,8.93
2023-05-05T03:24:14.463Z,9.12
2023-05-05T03:25:17.957Z,8.90
2023-05-05T03:26:20.445Z,8.84
2023-05-05T03:27:22.873Z,8.88
2023-05-05T03:28:25.071Z,8.87
2023-05-05T03:29:29.483Z,8.85
2023-05-05T03:30:32.512Z,8.82
2023-05-05T03:31:35.511Z,8.86
2023-05-05T03:32:37.735Z,8.85
2023-05-05T03:33:40.013Z,8.85
2023-05-05T03:34:42.176Z,8.85
2023-05-05T03:35:44.431Z,8.84
2023-05-05T03:36:48.544Z,8.82
2023-05-05T03:37:51.747Z,8.83
2023-05-05T03:38:54.027Z,8.87
2023-05-05T03:39:57.220Z,8.88
2023-05-05T03:41:05.684Z,9.04
2023-05-05T03:42:08.463Z,8.88
2023-05-05T03:43:11.530Z,8.88
2023-05-05T03:44:13.741Z,8.87
2023-05-05T03:45:16.839Z,8.85
2023-05-05T03:46:19.214Z,8.90
2023-05-05T03:47:24.518Z,8.89
2023-05-05T03:48:27.346Z,8.89
2023-05-05T03:49:29.816Z,8.86
2023-05-05T03:50:32.782Z,8.90
2023-05-05T03:51:34.923Z,8.86
2023-05-05T03:52:37.472Z,8.89
2023-05-05T03:53:39.727Z,8.88
2023-05-05T03:54:43.073Z,8.90
2023-05-05T03:55:45.233Z,8.87
2023-05-05T03:56:47.400Z,8.89
2023-05-05T03:57:49.540Z,8.87
2023-05-05T03:58:51.752Z,8.89
2023-05-05T03:59:54.172Z,8.87
2023-05-05T04:00:56.515Z,8.87
2023-05-05T04:01:58.733Z,8.93
2023-05-05T04:03:01.613Z,8.94
2023-05-05T04:04:04.551Z,8.97
2023-05-05T04:05:06.881Z,8.96
2023-05-05T04:06:09.043Z,8.96
2023-05-05T04:07:11.389Z,8.97
2023-05-05T04:08:13.562Z,8.99
2023-05-05T04:09:16.102Z,9.04
2023-05-05T04:10:18.950Z,9.08
2023-05-05T04:11:21.756Z,9.20
2023-05-05T04:12:24.084Z,9.17
2023-05-05T04:13:26.327Z,9.15
2023-05-05T04:14:28.925Z,9.20
2023-05-05T04:15:31.149Z,9.28
2023-05-05T04:16:33.564Z,9.29
2023-05-05T04:17:35.790Z,9.30
2023-05-05T04:18:38.399Z,9.30
2023-05-05T04:19:40.684Z,9.33
2023-05-05T04:20:43.669Z,9.29
2023-05-05T04:21:46.653Z,9.27
2023-05-05T04:22:51.424Z,9.38
2023-05-05T04:23:54.938Z,9.41
2023-05-05T04:24:57.661Z,9.35
2023-05-05T04:26:00.158Z,9.41
2023-05-05T04:27:03.225Z,9.42
2023-05-05T04:28:05.848Z,9.45
2023-05-05T04:29:09.730Z,9.43
2023-05-05T04:30:12.222Z,9.37
2023-05-05T04:31:15.919Z,9.39
2023-05-05T04:32:19.709Z,9.40
2023-05-05T04:33:21.981Z,9.37
2023-05-05T04:34:25.410Z,9.36
2023-05-05T04:35:27.714Z,9.38
2023-05-05T04:36:29.877Z,9.37
2023-05-05T04:37:32.125Z,9.38
2023-05-05T04:38:34.803Z,9.33
2023-05-05T04:39:38.214Z,9.40
2023-05-05T04:40:41.301Z,9.31
2023-05-05T04:41:44.763Z,9.31
2023-05-05T04:42:47.069Z,9.42
2023-05-05T04:43:49.834Z,9.37
2023-05-05T04:44:52.041Z,9.35
2023-05-05T04:45:55.425Z,9.38
2023-05-05T04:47:01.205Z,9.27
2023-05-05T04:48:05.182Z,9.22
2023-05-05T04:49:07.450Z,9.20
2023-05-05T04:50:11.356Z,9.27
2023-05-05T04:51:14.206Z,9.19
2023-05-05T04:52:16.392Z,9.31
2023-05-05T04:53:18.746Z,9.27
2023-05-05T04:54:21.410Z,9.22
2023-05-05T04:55:23.563Z,9.21
2023-05-05T04:56:25.884Z,9.23
2023-05-05T04:57:29.718Z,9.39
2023-05-05T04:58:32.882Z,9.30
2023-05-05T04:59:35.151Z,9.26
2023-05-05T05:00:37.938Z,9.26
2023-05-05T05:01:40.215Z,9.32
2023-05-05T05:02:42.731Z,9.27
2023-05-05T05:03:44.988Z,9.24
2023-05-05T05:04:47.610Z,9.24
2023-05-05T05:05:50.464Z,9.34
2023-05-05T05:06:53.388Z,9.38
2023-05-05T05:07:55.855Z,9.39
2023-05-05T05:08:58.861Z,9.40
2023-05-05T05:10:01.047Z,9.37
2023-05-05T05:11:03.244Z,9.45
2023-05-05T05:12:07.901Z,9.48
2023-05-05T05:13:12.670Z,9.58
2023-05-05T05:14:15.291Z,9.58
2023-05-05T05:15:17.657Z,9.62
2023-05-05T05:16:20.065Z,9.77
2023-05-05T05:17:23.919Z,9.84
2023-05-05T05:18:26.315Z,9.86
2023-05-05T05:19:29.367Z,9.91
2023-05-05T05:20:32.158Z,10.04
2023-05-05T05:21:34.329Z,10.16
2023-05-05T05:22:38.763Z,10.20
2023-05-05T05:23:43.990Z,10.41
2023-05-05T05:24:46.146Z,10.46
2023-05-05T05:25:49.158Z,10.56
2023-05-05T05:26:53.890Z,10.74
2023-05-05T05:29:04.920Z,10.96
2023-05-05T05:30:08.667Z,10.95
2023-05-05T05:31:11.327Z,10.94
2023-05-05T05:32:13.593Z,10.95
2023-05-05T05:33:15.944Z,10.95
2023-05-05T05:34:19.013Z,10.90
2023-05-05T05:35:21.463Z,11.02
2023-05-05T05:36:23.739Z,10.86
2023-05-05T05:37:30.004Z,11.18
2023-05-05T05:38:33.328Z,11.21
2023-05-05T05:39:37.823Z,11.39
2023-05-05T05:40:40.302Z,11.38
2023-05-05T05:41:42.690Z,11.54
2023-05-05T05:42:44.977Z,11.61
2023-05-05T05:43:47.316Z,11.65
2023-05-05T05:44:49.620Z,11.66
2023-05-05T05:45:52.036Z,11.52
2023-05-05T05:46:54.706Z,11.45
2023-05-05T05:47:57.042Z,11.18
2023-05-05T05:48:59.663Z,11.33
2023-05-05T05:50:02.095Z,11.30
2023-05-05T05:51:04.819Z,11.33
2023-05-05T05:52:07.207Z,11.37
2023-05-05T05:53:09.430Z,11.24
2023-05-05T05:54:11.975Z,11.31
2023-05-05T05:55:14.497Z,11.37
2023-05-05T05:56:16.814Z,11.40
2023-05-05T05:57:19.074Z,11.41
2023-05-05T05:58:21.411Z,11.28
2023-05-05T05:59:23.654Z,11.35
2023-05-05T06:00:26.085Z,11.36
2023-05-05T06:01:35.512Z,11.32
2023-05-05T06:02:37.939Z,11.14
2023-05-05T06:03:41.976Z,11.24
2023-05-05T06:04:44.259Z,11.22
2023-05-05T06:05:46.694Z,11.11
2023-05-05T06:06:49.806Z,11.13
2023-05-05T06:07:52.153Z,11.08
2023-05-05T06:08:55.720Z,11.12
2023-05-05T06:09:57.959Z,11.16
2023-05-05T06:11:00.646Z,11.19
2023-05-05T06:12:03.790Z,11.30
2023-05-05T06:13:06.848Z,11.32
2023-05-05T06:14:11.400Z,11.35
2023-05-05T06:15:13.626Z,11.29
2023-05-05T06:16:16.177Z,11.16
2023-05-05T06:17:21.267Z,11.17
2023-05-05T06:18:23.467Z,11.15
2023-05-05T06:19:26.740Z,11.02
2023-05-05T06:20:29.024Z,10.98
2023-05-05T06:21:31.762Z,11.04
2023-05-05T06:22:33.947Z,11.06
2023-05-05T06:23:36.145Z,11.05
2023-05-05T06:24:41.595Z,11.06
2023-05-05T06:25:43.757Z,11.08
2023-05-05T06:26:45.886Z,11.03
2023-05-05T06:27:48.037Z,10.98
2023-05-05T06:28:50.410Z,10.96
2023-05-05T06:29:52.531Z,10.86
2023-05-05T06:30:54.683Z,10.80
2023-05-05T06:31:56.956Z,10.67
2023-05-05T06:32:59.091Z,10.64
2023-05-05T06:34:01.249Z,10.58
2023-05-05T06:35:03.582Z,10.55
2023-05-05T06:36:06.056Z,10.47
2023-05-05T06:37:08.206Z,10.39
2023-05-05T06:38:10.582Z,10.31
2023-05-05T06:39:15.269Z,10.22
2023-05-05T06:40:18.146Z,10.19
2023-05-05T06:41:20.690Z,10.03
2023-05-05T06:42:22.903Z,9.95
2023-05-05T06:43:29.135Z,9.84
2023-05-05T06:44:36.411Z,9.65
2023-05-05T06:45:38.671Z,9.59
2023-05-05T06:46:40.908Z,9.57
2023-05-05T06:47:44.241Z,9.37
2023-05-05T06:48:46.477Z,9.34
2023-05-05T06:49:48.607Z,9.22
2023-05-05T06:50:51.112Z,9.12
2023-05-05T06:51:53.297Z,9.07
2023-05-05T06:52:55.454Z,9.05
2023-05-05T06:53:57.636Z,8.97
2023-05-05T06:54:59.858Z,8.95
2023-05-05T06:56:02.031Z,8.84
2023-05-05T06:57:04.332Z,8.87
2023-05-05T06:58:06.679Z,8.86
2023-05-05T06:59:08.849Z,8.89
2023-05-05T07:00:11.912Z,8.96
2023-05-05T07:01:14.591Z,8.80
2023-05-05T07:02:16.829Z,8.86
2023-05-05T07:03:19.157Z,8.86
2023-05-05T07:04:21.584Z,8.79
2023-05-05T07:05:23.841Z,8.76
2023-05-05T07:06:26.152Z,8.77
2023-05-05T07:07:28.359Z,8.78
2023-05-05T07:08:30.639Z,8.76
2023-05-05T07:09:32.804Z,8.69
2023-05-05T07:10:35.056Z,8.77
2023-05-05T07:11:37.969Z,8.78
2023-05-05T07:12:40.151Z,8.77
2023-05-05T07:13:42.508Z,8.82
2023-05-05T07:14:46.090Z,8.86
2023-05-05T07:15:48.381Z,8.82
2023-05-05T07:16:50.642Z,8.90
2023-05-05T07:17:52.890Z,8.97
2023-05-05T07:18:55.163Z,9.01
2023-05-05T07:19:57.303Z,8.96
2023-05-05T07:20:59.512Z,8.92
2023-05-05T07:22:01.659Z,8.99
2023-05-05T07:23:03.872Z,9.06
2023-05-05T07:24:06.491Z,9.23
2023-05-05T07:25:08.744Z,9.48
2023-05-05T07:26:11.069Z,9.86
2023-05-05T07:27:13.944Z,10.23
2023-05-05T07:28:16.386Z,10.43
2023-05-05T07:29:18.595Z,10.55
2023-05-05T07:30:21.229Z,10.99
2023-05-05T07:31:23.715Z,11.32
2023-05-05T07:32:26.189Z,11.44
2023-05-05T07:33:28.517Z,11.67
2023-05-05T07:34:32.764Z,11.91
2023-05-05T07:35:34.936Z,12.15
2023-05-05T07:36:37.146Z,12.55
2023-05-05T07:37:39.275Z,12.23
2023-05-05T07:38:41.471Z,11.97
2023-05-05T07:39:43.649Z,11.52
2023-05-05T07:40:45.958Z,11.28
2023-05-05T07:41:48.151Z,11.41
2023-05-05T07:42:50.389Z,11.26
2023-05-05T07:43:52.641Z,11.02
2023-05-05T07:44:55.387Z,10.98
2023-05-05T07:45:57.603Z,10.83
2023-05-05T07:46:59.862Z,10.71
2023-05-05T07:48:02.075Z,10.65
2023-05-05T07:49:04.293Z,10.60
2023-05-05T07:50:07.113Z,10.54
2023-05-05T07:51:09.732Z,10.53
2023-05-05T07:52:12.258Z,10.30
2023-05-05T07:53:15.315Z,10.30
2023-05-05T07:54:17.761Z,10.21
2023-05-05T07:55:20.128Z,10.34
2023-05-05T07:56:22.334Z,10.46
2023-05-05T07:57:24.575Z,10.38
2023-05-05T07:58:26.875Z,10.41
2023-05-05T07:59:29.133Z,10.49
2023-05-05T08:00:31.426Z,10.50
2023-05-05T08:01:33.609Z,10.32
2023-05-05T08:02:35.865Z,10.38
2023-05-05T08:03:38.410Z,10.40
2023-05-05T08:04:41.536Z,10.57
2023-05-05T08:05:43.783Z,10.48
2023-05-05T08:06:46.119Z,10.30
2023-05-05T08:07:48.470Z,10.29
2023-05-05T08:08:53.364Z,10.29
2023-05-05T08:09:55.681Z,10.28
2023-05-05T08:10:57.844Z,10.28
2023-05-05T08:12:01.358Z,10.18
2023-05-05T08:13:03.728Z,10.20
2023-05-05T08:14:07.802Z,10.38
2023-05-05T08:15:10.652Z,10.36
2023-05-05T08:16:13.482Z,10.49
2023-05-05T08:17:17.860Z,10.36
2023-05-05T08:18:20.305Z,10.46
2023-05-05T08:19:28.982Z,10.47
2023-05-05T08:20:32.807Z,10.41
2023-05-05T08:21:35.213Z,10.45
2023-05-05T08:22:37.362Z,10.34
2023-05-05T08:23:39.892Z,10.26
2023-05-05T08:24:42.031Z,10.24
2023-05-05T08:25:44.442Z,10.30
2023-05-05T08:26:46.654Z,10.32
2023-05-05T08:27:48.787Z,10.33
2023-05-05T08:28:55.032Z,10.44
2023-05-05T08:29:57.694Z,10.33
2023-05-05T08:31:00.018Z,10.34
2023-05-05T08:32:02.221Z,10.14
2023-05-05T08:33:04.394Z,10.23
2023-05-05T08:34:06.944Z,10.28
2023-05-05T08:35:09.686Z,10.39
2023-05-05T08:36:13.608Z,10.46
2023-05-05T08:37:16.920Z,10.49
2023-05-05T08:38:19.172Z,10.57
2023-05-05T08:39:21.364Z,10.78
2023-05-05T08:40:31.863Z,10.85
2023-05-05T08:41:34.068Z,10.88
2023-05-05T08:42:38.620Z,10.86
2023-05-05T08:43:43.757Z,11.12
2023-05-05T08:44:45.919Z,11.08
2023-05-05T08:45:49.360Z,11.25
2023-05-05T08:46:51.852Z,11.17
2023-05-05T08:48:00.433Z,11.12
2023-05-05T08:49:05.436Z,11.27
2023-05-05T08:50:10.445Z,11.33
2023-05-05T08:51:19.798Z,11.34
2023-05-05T08:52:24.163Z,11.16
2023-05-05T08:53:36.260Z,11.30
2023-05-05T08:54:43.317Z,11.40
2023-05-05T08:55:51.082Z,11.56
2023-05-05T08:56:55.071Z,11.58
2023-05-05T08:57:58.321Z,12.05
2023-05-05T08:59:02.498Z,12.34
2023-05-05T09:00:05.993Z,12.70
2023-05-05T09:01:08.691Z,12.97
2023-05-05T09:02:12.545Z,13.28
2023-05-05T09:03:15.796Z,13.40
2023-05-05T09:04:19.172Z,13.27
2023-05-05T09:05:21.294Z,13.38
2023-05-05T09:06:25.592Z,13.41
2023-05-05T09:07:27.791Z,14.06
2023-05-05T09:08:31.424Z,14.43
2023-05-05T09:09:33.872Z,14.21
2023-05-05T09:10:36.815Z,15.05
2023-05-05T09:11:39.459Z,15.26
2023-05-05T09:12:42.054Z,15.26
2023-05-05T09:13:44.474Z,16.11
2023-05-05T09:14:47.117Z,16.74
2023-05-05T09:15:49.353Z,17.02
2023-05-05T09:16:51.549Z,18.17
2023-05-05T09:17:57.564Z,19.32
2023-05-05T09:19:05.700Z,20.20
2023-05-05T09:20:09.842Z,20.18
2023-05-05T09:21:23.005Z,19.98
2023-05-05T09:22:53.246Z,19.35
2023-05-05T09:24:08.498Z,19.64
2023-05-05T09:25:13.163Z,18.85
2023-05-05T09:26:15.342Z,19.08
2023-05-05T09:27:23.707Z,19.16
2023-05-05T09:28:26.924Z,19.35
2023-05-05T09:29:29.420Z,18.99
2023-05-05T09:30:31.870Z,18.93
2023-05-05T09:31:35.451Z,19.01
2023-05-05T09:32:51.770Z,18.92
2023-05-05T09:33:54.130Z,18.82
2023-05-05T09:35:01.214Z,19.52
2023-05-05T09:36:03.570Z,19.47
2023-05-05T09:37:06.415Z,20.01
2023-05-05T09:38:12.366Z,20.72
2023-05-05T09:39:17.370Z,20.79
2023-05-05T09:40:20.724Z,20.63
2023-05-05T09:41:53.194Z,20.92
2023-05-05T09:43:02.110Z,20.61
2023-05-05T09:44:04.459Z,20.66
2023-05-05T09:45:27.494Z,20.68
2023-05-05T09:46:29.881Z,19.81
2023-05-05T09:47:36.973Z,20.05
2023-05-05T09:48:39.282Z,20.17
2023-05-05T09:49:41.494Z,19.65
2023-05-05T09:50:44.751Z,20.01
2023-05-05T09:51:47.737Z,19.44
2023-05-05T09:53:00.784Z,19.09
2023-05-05T09:54:03.080Z,19.51
2023-05-05T09:55:05.705Z,20.23
2023-05-05T09:56:08.455Z,20.52
2023-05-05T09:57:29.788Z,20.27
2023-05-05T09:58:32.097Z,20.05
2023-05-05T09:59:34.340Z,20.15
2023-05-05T10:00:39.819Z,20.45
2023-05-05T10:01:43.809Z,21.14
2023-05-05T10:02:46.259Z,21.51
2023-05-05T10:03:54.322Z,21.09
2023-05-05T10:05:07.028Z,20.95
2023-05-05T10:06:09.249Z,20.97
2023-05-05T10:07:23.444Z,20.84
2023-05-05T10:08:27.671Z,21.19
2023-05-05T10:09:31.716Z,21.33
2023-05-05T10:10:34.092Z,21.57
2023-05-05T10:11:36.852Z,21.53
2023-05-05T10:12:39.741Z,21.97
2023-05-05T10:13:42.986Z,22.08
2023-05-05T10:14:45.335Z,23.01
2023-05-05T10:15:50.127Z,23.33
2023-05-05T10:16:54.691Z,23.34
2023-05-05T10:18:07.810Z,24.74
2023-05-05T10:19:14.246Z,24.99
2023-05-05T10:20:18.714Z,24.59
2023-05-05T10:21:21.718Z,25.31
2023-05-05T10:22:25.068Z,24.94
2023-05-05T10:23:45.736Z,25.74
2023-05-05T10:24:53.575Z,25.60
2023-05-05T10:26:05.471Z,25.37
2023-05-05T10:27:14.634Z,25.39
2023-05-05T10:28:27.169Z,24.87
2023-05-05T10:29:45.984Z,24.76
2023-05-05T10:30:53.709Z,24.78
2023-05-05T10:32:14.119Z,24.08
2023-05-05T10:33:35.240Z,24.66
2023-05-05T10:34:52.719Z,25.14
2023-05-05T10:36:00.929Z,25.71
2023-05-05T10:37:04.693Z,26.19
2023-05-05T10:38:12.626Z,26.54
2023-05-05T10:39:18.126Z,26.94
2023-05-05T10:40:22.364Z,25.68
2023-05-05T10:41:26.621Z,25.15
2023-05-05T10:42:28.906Z,26.04
2023-05-05T10:43:31.432Z,25.71
2023-05-05T10:44:34.153Z,25.92
2023-05-05T10:45:37.637Z,27.20
2023-05-05T10:46:43.050Z,27.08
2023-05-05T10:47:46.570Z,26.74
2023-05-05T10:49:02.971Z,26.90
2023-05-05T10:50:27.517Z,25.63
2023-05-05T10:51:57.882Z,26.42
2023-05-05T10:52:59.984Z,26.95
2023-05-05T10:54:10.566Z,27.19
2023-05-05T10:55:32.946Z,26.99
2023-05-05T10:56:36.132Z,27.05
2023-05-05T10:57:41.755Z,26.81
2023-05-05T10:58:55.375Z,27.54
2023-05-05T11:00:01.374Z,26.91
2023-05-05T11:01:05.044Z,26.53
2023-05-05T11:02:27.328Z,28.14
2023-05-05T11:03:30.102Z,27.73
2023-05-05T11:04:32.669Z,27.68
2023-05-05T11:05:34.852Z,27.57
2023-05-05T11:06:36.982Z,26.87
2023-05-05T11:07:39.742Z,26.94
2023-05-05T11:08:44.248Z,27.94
2023-05-05T11:10:01.403Z,28.39
2023-05-05T11:11:04.856Z,26.82
2023-05-05T11:12:07.663Z,26.21
2023-05-05T11:13:09.805Z,26.75
2023-05-05T11:14:23.810Z,27.80
2023-05-05T11:15:31.843Z,28.25
2023-05-05T11:16:47.340Z,28.91
2023-05-05T11:17:49.681Z,28.46
2023-05-05T11:18:51.863Z,28.66
2023-05-05T11:20:50.865Z,27.57
2023-05-05T11:22:00.414Z,27.69
2023-05-05T11:23:02.530Z,27.80
2023-05-05T11:24:30.042Z,27.70
2023-05-05T11:25:39.036Z,28.34
2023-05-05T11:26:51.614Z,28.73
2023-05-05T11:28:16.581Z,28.05
2023-05-05T11:29:18.796Z,27.19
2023-05-05T11:30:21.111Z,28.06
2023-05-05T11:31:23.662Z,28.96
2023-05-05T11:32:25.848Z,28.64
2023-05-05T11:33:37.611Z,28.50
2023-05-05T11:34:49.999Z,28.60
2023-05-05T11:36:06.121Z,28.49
2023-05-05T11:37:09.210Z,28.60
2023-05-05T11:38:14.734Z,28.10
2023-05-05T11:39:29.037Z,28.37
2023-05-05T11:40:36.515Z,28.31
2023-05-05T11:41:38.702Z,27.64
2023-05-05T11:42:40.962Z,27.88
2023-05-05T11:43:43.381Z,27.13
2023-05-05T11:44:45.753Z,27.68
2023-05-05T11:45:48.004Z,28.30
2023-05-05T11:46:53.858Z,28.39
2023-05-05T11:48:28.464Z,28.79
2023-05-05T11:49:34.133Z,29.12
2023-05-05T11:50:36.787Z,29.34
2023-05-05T11:51:39.847Z,29.28
2023-05-05T11:52:42.089Z,29.14
2023-05-05T11:53:46.811Z,28.19
2023-05-05T11:54:50.159Z,28.63
2023-05-05T11:56:06.682Z,28.86
2023-05-05T11:57:10.318Z,28.93
2023-05-05T11:58:21.372Z,29.19
2023-05-05T11:59:23.905Z,28.64
2023-05-05T12:00:33.523Z,28.52
2023-05-05T12:01:42.624Z,28.32
2023-05-05T12:02:44.997Z,28.26
2023-05-05T12:03:47.498Z,28.85
2023-05-05T12:04:50.969Z,28.43
2023-05-05T12:05:55.996Z,28.21
2023-05-05T12:06:59.282Z,28.10
2023-05-05T12:08:01.576Z,27.07
2023-05-05T12:09:04.411Z,27.49
2023-05-05T12:10:07.445Z,28.04
2023-05-05T12:11:11.758Z,27.97
2023-05-05T12:12:15.187Z,27.54
2023-05-05T12:13:19.327Z,27.01
2023-05-05T12:14:22.582Z,26.64
2023-05-05T12:15:29.471Z,26.32
2023-05-05T12:16:31.803Z,26.98
2023-05-05T12:17:39.886Z,26.93
2023-05-05T12:18:42.472Z,26.78
2023-05-05T12:19:48.832Z,27.06
2023-05-05T12:20:52.866Z,26.54
2023-05-05T12:21:55.155Z,27.18
2023-05-05T12:23:02.654Z,26.96
2023-05-05T12:24:05.375Z,26.48
2023-05-05T12:25:08.395Z,26.53
2023-05-05T12:26:30.081Z,25.80
2023-05-05T12:27:32.451Z,26.15
2023-05-05T12:28:46.449Z,26.08
2023-05-05T12:29:49.156Z,25.69
2023-05-05T12:30:59.089Z,25.71
2023-05-05T12:32:01.971Z,26.64
2023-05-05T12:33:06.211Z,27.04
2023-05-05T12:34:10.206Z,26.27
2023-05-05T12:35:13.574Z,26.77
2023-05-05T12:36:16.417Z,26.02
2023-05-05T12:37:19.211Z,26.16
2023-05-05T12:38:21.397Z,26.32
2023-05-05T12:39:23.672Z,26.10
2023-05-05T12:40:49.539Z,25.63
2023-05-05T12:41:51.705Z,25.01
2023-05-05T12:42:53.935Z,25.09
2023-05-05T12:43:57.355Z,24.93
2023-05-05T12:44:59.647Z,24.60
2023-05-05T12:46:10.071Z,23.78
2023-05-05T12:47:13.266Z,23.43
2023-05-05T12:48:22.420Z,23.40
2023-05-05T12:49:24.597Z,22.91
2023-05-05T12:50:31.619Z,23.26
2023-05-05T12:51:35.961Z,23.46
2023-05-05T12:52:45.575Z,23.29
2023-05-05T12:53:49.240Z,23.52
2023-05-05T12:54:56.384Z,24.10
2023-05-05T12:55:58.892Z,24.07
2023-05-05T12:57:11.237Z,24.37
2023-05-05T12:58:13.556Z,24.66
2023-05-05T12:59:21.808Z,24.96
2023-05-05T13:00:24.832Z,24.41
2023-05-05T13:01:28.134Z,24.37
2023-05-05T13:02:34.429Z,23.72
2023-05-05T13:03:36.771Z,23.44
2023-05-05T13:04:54.841Z,24.17
2023-05-05T13:05:56.983Z,23.89
2023-05-05T13:07:13.864Z,23.20
2023-05-05T13:08:16.104Z,23.12
2023-05-05T13:09:25.858Z,23.24
2023-05-05T13:10:28.434Z,23.13
2023-05-05T13:11:30.598Z,23.38
2023-05-05T13:12:32.780Z,23.42
2023-05-05T13:13:36.026Z,22.61
2023-05-05T13:14:38.808Z,22.60
2023-05-05T13:15:41.049Z,22.65
2023-05-05T13:16:43.168Z,22.91
2023-05-05T13:17:45.394Z,23.03
2023-05-05T13:18:49.495Z,23.44
2023-05-05T13:19:52.154Z,22.93
2023-05-05T13:20:54.301Z,23.29
2023-05-05T13:21:57.580Z,23.41
2023-05-05T13:22:59.707Z,23.04
2023-05-05T13:24:20.741Z,23.08
2023-05-05T13:25:24.287Z,22.72
2023-05-05T13:26:26.937Z,22.18
2023-05-05T13:27:29.595Z,21.99
2023-05-05T13:28:31.751Z,21.64
2023-05-05T13:29:33.925Z,21.67
2023-05-05T13:30:36.127Z,21.33
2023-05-05T13:31:38.399Z,21.03
2023-05-05T13:32:41.371Z,21.25
2023-05-05T13:33:43.504Z,21.42
2023-05-05T13:34:45.781Z,21.18
2023-05-05T13:35:48.082Z,21.42
2023-05-05T13:36:50.409Z,21.24
2023-05-05T13:37:52.682Z,21.17
2023-05-05T13:38:55.132Z,21.25
2023-05-05T13:39:59.403Z,21.13
2023-05-05T13:41:02.010Z,21.30
2023-05-05T13:42:04.778Z,21.47
2023-05-05T13:43:07.163Z,21.37
2023-05-05T13:44:09.592Z,21.47
2023-05-05T13:45:14.096Z,21.74
2023-05-05T13:46:20.155Z,21.48
2023-05-05T13:47:22.779Z,21.58
2023-05-05T13:48:25.024Z,21.55
2023-05-05T13:49:27.240Z,21.54
2023-05-05T13:50:29.472Z,21.53
2023-05-05T13:51:31.627Z,21.42
2023-05-05T13:52:33.798Z,21.70
2023-05-05T13:53:36.151Z,21.97
2023-05-05T13:54:38.488Z,21.62
2023-05-05T13:55:42.119Z,21.49
2023-05-05T13:56:44.603Z,21.29
2023-05-05T13:57:47.172Z,20.93
2023-05-05T13:58:49.319Z,20.61
2023-05-05T13:59:51.494Z,20.42
2023-05-05T14:00:55.247Z,20.12
2023-05-05T14:01:57.426Z,20.24
2023-05-05T14:03:00.307Z,20.22
2023-05-05T14:04:05.194Z,20.44
2023-05-05T14:05:08.791Z,20.57
2023-05-05T14:06:11.060Z,20.45
2023-05-05T14:07:13.209Z,20.62
2023-05-05T14:08:15.334Z,20.92
2023-05-05T14:09:17.481Z,21.00
2023-05-05T14:10:19.956Z,21.09
2023-05-05T14:11:22.888Z,21.07